sensor_id;sensor_type;location;lat;lon;timestamp;P1;durP1;ratioP1;P2;durP2;ratioP2
11535;SDS011;5824;49.336;8.652;2022-12-29T00:01:37;3.90;;;3.20;;
11535;SDS011;5824;49.336;8.652;2022-12-29T00:04:03;3.97;;;3.03;;
11535;SDS011;5824;49.336;8.652;2022-12-29T00:06:29;5.60;;;3.50;;
11535;SDS011;5824;49.336;8.652;2022-12-29T00:08:56;4.03;;;3.13;;
11535;SDS011;5824;49.336;8.652;2022-12-29T00:11:22;3.43;;;3.13;;
11535;SDS011;5824;49.336;8.652;2022-12-29T00:13:50;3.87;;;3.30;;
11535;SDS011;5824;49.336;8.652;2022-12-29T00:16:35;4.17;;;3.47;;
11535;SDS011;5824;49.336;8.652;2022-12-29T00:19:01;4.30;;;3.40;;
11535;SDS011;5824;49.336;8.652;2022-12-29T00:21:28;4.57;;;3.30;;
11535;SDS011;5824;49.336;8.652;2022-12-29T00:24:17;6.93;;;3.07;;
11535;SDS011;5824;49.336;8.652;2022-12-29T00:26:48;4.07;;;3.00;;
11535;SDS011;5824;49.336;8.652;2022-12-29T00:29:36;3.67;;;3.00;;
11535;SDS011;5824;49.336;8.652;2022-12-29T00:32:20;8.60;;;2.90;;
11535;SDS011;5824;49.336;8.652;2022-12-29T00:35:04;6.77;;;3.00;;
11535;SDS011;5824;49.336;8.652;2022-12-29T00:37:42;4.63;;;2.87;;
11535;SDS011;5824;49.336;8.652;2022-12-29T00:40:29;3.20;;;2.40;;
11535;SDS011;5824;49.336;8.652;2022-12-29T00:43:13;5.23;;;2.80;;
11535;SDS011;5824;49.336;8.652;2022-12-29T00:45:57;4.27;;;3.17;;
11535;SDS011;5824;49.336;8.652;2022-12-29T00:48:22;5.60;;;2.90;;
11535;SDS011;5824;49.336;8.652;2022-12-29T00:51:07;4.13;;;2.50;;
11535;SDS011;5824;49.336;8.652;2022-12-29T00:53:33;3.70;;;2.53;;
11535;SDS011;5824;49.336;8.652;2022-12-29T00:55:59;3.60;;;2.23;;
11535;SDS011;5824;49.336;8.652;2022-12-29T00:58:28;4.70;;;2.67;;
11535;SDS011;5824;49.336;8.652;2022-12-29T01:01:04;4.30;;;2.43;;
11535;SDS011;5824;49.336;8.652;2022-12-29T01:03:30;3.10;;;2.40;;
11535;SDS011;5824;49.336;8.652;2022-12-29T01:05:59;4.20;;;2.33;;
11535;SDS011;5824;49.336;8.652;2022-12-29T01:08:26;5.20;;;2.90;;
11535;SDS011;5824;49.336;8.652;2022-12-29T01:11:03;6.50;;;3.00;;
11535;SDS011;5824;49.336;8.652;2022-12-29T01:13:31;3.80;;;2.43;;
11535;SDS011;5824;49.336;8.652;2022-12-29T01:15:56;3.00;;;2.13;;
11535;SDS011;5824;49.336;8.652;2022-12-29T01:18:23;3.03;;;2.33;;
11535;SDS011;5824;49.336;8.652;2022-12-29T01:20:49;3.87;;;2.10;;
11535;SDS011;5824;49.336;8.652;2022-12-29T01:23:15;2.83;;;1.83;;
11535;SDS011;5824;49.336;8.652;2022-12-29T01:25:40;5.20;;;2.20;;
11535;SDS011;5824;49.336;8.652;2022-12-29T01:28:06;2.77;;;2.00;;
11535;SDS011;5824;49.336;8.652;2022-12-29T01:30:33;5.80;;;2.57;;
11535;SDS011;5824;49.336;8.652;2022-12-29T01:32:59;2.77;;;2.10;;
11535;SDS011;5824;49.336;8.652;2022-12-29T01:35:24;4.37;;;2.00;;
11535;SDS011;5824;49.336;8.652;2022-12-29T01:37:50;6.90;;;2.20;;
11535;SDS011;5824;49.336;8.652;2022-12-29T01:40:15;3.27;;;1.90;;
11535;SDS011;5824;49.336;8.652;2022-12-29T01:42:41;3.10;;;2.17;;
11535;SDS011;5824;49.336;8.652;2022-12-29T01:45:10;6.27;;;2.53;;
11535;SDS011;5824;49.336;8.652;2022-12-29T01:47:57;2.37;;;1.90;;
11535;SDS011;5824;49.336;8.652;2022-12-29T01:50:27;4.87;;;2.20;;
11535;SDS011;5824;49.336;8.652;2022-12-29T01:53:06;3.10;;;1.97;;
11535;SDS011;5824;49.336;8.652;2022-12-29T01:55:37;4.50;;;2.10;;
11535;SDS011;5824;49.336;8.652;2022-12-29T01:58:07;3.17;;;2.17;;
11535;SDS011;5824;49.336;8.652;2022-12-29T02:00:36;5.83;;;2.40;;
11535;SDS011;5824;49.336;8.652;2022-12-29T02:03:02;3.93;;;1.97;;
11535;SDS011;5824;49.336;8.652;2022-12-29T02:05:43;3.37;;;2.00;;
11535;SDS011;5824;49.336;8.652;2022-12-29T02:08:15;6.13;;;1.90;;
11535;SDS011;5824;49.336;8.652;2022-12-29T02:10:41;6.83;;;2.20;;
11535;SDS011;5824;49.336;8.652;2022-12-29T02:13:08;3.80;;;2.23;;
11535;SDS011;5824;49.336;8.652;2022-12-29T02:21:08;2.20;;;1.80;;
11535;SDS011;5824;49.336;8.652;2022-12-29T02:35:01;4.77;;;1.97;;
11535;SDS011;5824;49.336;8.652;2022-12-29T02:37:48;2.40;;;1.67;;
11535;SDS011;5824;49.336;8.652;2022-12-29T02:40:39;2.50;;;2.17;;
11535;SDS011;5824;49.336;8.652;2022-12-29T02:46:35;3.20;;;1.87;;
11535;SDS011;5824;49.336;8.652;2022-12-29T02:49:22;2.13;;;1.73;;
11535;SDS011;5824;49.336;8.652;2022-12-29T02:54:26;3.07;;;1.83;;
11535;SDS011;5824;49.336;8.652;2022-12-29T03:10:53;3.77;;;2.10;;
11535;SDS011;5824;49.336;8.652;2022-12-29T03:13:44;5.43;;;1.90;;
11535;SDS011;5824;49.336;8.652;2022-12-29T03:16:44;6.73;;;2.17;;
11535;SDS011;5824;49.336;8.652;2022-12-29T03:19:17;5.77;;;2.20;;
11535;SDS011;5824;49.336;8.652;2022-12-29T03:21:55;4.27;;;2.40;;
11535;SDS011;5824;49.336;8.652;2022-12-29T03:24:52;5.43;;;2.20;;
11535;SDS011;5824;49.336;8.652;2022-12-29T03:27:22;3.77;;;2.17;;
11535;SDS011;5824;49.336;8.652;2022-12-29T03:29:57;3.50;;;2.20;;
11535;SDS011;5824;49.336;8.652;2022-12-29T03:32:27;2.47;;;2.00;;
11535;SDS011;5824;49.336;8.652;2022-12-29T03:34:56;7.40;;;1.87;;
11535;SDS011;5824;49.336;8.652;2022-12-29T03:37:25;2.63;;;2.10;;
11535;SDS011;5824;49.336;8.652;2022-12-29T03:39:55;3.30;;;1.90;;
11535;SDS011;5824;49.336;8.652;2022-12-29T03:42:22;2.67;;;2.10;;
11535;SDS011;5824;49.336;8.652;2022-12-29T03:44:52;3.53;;;1.80;;
11535;SDS011;5824;49.336;8.652;2022-12-29T03:47:21;5.63;;;1.97;;
11535;SDS011;5824;49.336;8.652;2022-12-29T03:49:48;5.03;;;2.10;;
11535;SDS011;5824;49.336;8.652;2022-12-29T03:52:14;4.23;;;1.70;;
11535;SDS011;5824;49.336;8.652;2022-12-29T03:54:40;3.20;;;1.93;;
11535;SDS011;5824;49.336;8.652;2022-12-29T03:57:06;4.10;;;2.17;;
11535;SDS011;5824;49.336;8.652;2022-12-29T03:59:31;3.60;;;2.23;;
11535;SDS011;5824;49.336;8.652;2022-12-29T04:01:57;3.80;;;1.73;;
11535;SDS011;5824;49.336;8.652;2022-12-29T04:04:22;4.97;;;2.50;;
11535;SDS011;5824;49.336;8.652;2022-12-29T04:06:48;4.77;;;1.97;;
11535;SDS011;5824;49.336;8.652;2022-12-29T04:09:13;2.67;;;2.10;;
11535;SDS011;5824;49.336;8.652;2022-12-29T04:11:39;2.20;;;1.70;;
11535;SDS011;5824;49.336;8.652;2022-12-29T04:14:04;2.90;;;1.70;;
11535;SDS011;5824;49.336;8.652;2022-12-29T04:16:30;4.00;;;1.87;;
11535;SDS011;5824;49.336;8.652;2022-12-29T04:18:55;1.70;;;1.60;;
11535;SDS011;5824;49.336;8.652;2022-12-29T04:21:21;3.37;;;1.63;;
11535;SDS011;5824;49.336;8.652;2022-12-29T04:23:46;4.40;;;1.93;;
11535;SDS011;5824;49.336;8.652;2022-12-29T04:26:12;1.70;;;1.53;;
11535;SDS011;5824;49.336;8.652;2022-12-29T04:28:38;2.30;;;1.57;;
11535;SDS011;5824;49.336;8.652;2022-12-29T04:31:04;2.50;;;1.70;;
11535;SDS011;5824;49.336;8.652;2022-12-29T04:33:30;2.20;;;1.90;;
11535;SDS011;5824;49.336;8.652;2022-12-29T04:35:55;4.13;;;1.60;;
11535;SDS011;5824;49.336;8.652;2022-12-29T04:38:22;2.60;;;1.73;;
11535;SDS011;5824;49.336;8.652;2022-12-29T04:40:48;2.60;;;1.60;;
11535;SDS011;5824;49.336;8.652;2022-12-29T04:43:14;2.00;;;1.50;;
11535;SDS011;5824;49.336;8.652;2022-12-29T04:45:44;3.10;;;1.70;;
11535;SDS011;5824;49.336;8.652;2022-12-29T04:48:11;2.80;;;2.13;;
11535;SDS011;5824;49.336;8.652;2022-12-29T04:50:37;2.23;;;1.60;;
11535;SDS011;5824;49.336;8.652;2022-12-29T04:53:04;6.33;;;1.90;;
11535;SDS011;5824;49.336;8.652;2022-12-29T04:55:30;2.97;;;2.10;;
11535;SDS011;5824;49.336;8.652;2022-12-29T04:57:55;1.60;;;1.50;;
11535;SDS011;5824;49.336;8.652;2022-12-29T05:00:21;2.27;;;1.60;;
11535;SDS011;5824;49.336;8.652;2022-12-29T05:02:46;2.27;;;1.60;;
11535;SDS011;5824;49.336;8.652;2022-12-29T05:05:12;3.27;;;2.00;;
11535;SDS011;5824;49.336;8.652;2022-12-29T05:07:38;1.90;;;1.40;;
11535;SDS011;5824;49.336;8.652;2022-12-29T05:10:04;3.40;;;1.60;;
11535;SDS011;5824;49.336;8.652;2022-12-29T05:12:30;3.00;;;1.80;;
11535;SDS011;5824;49.336;8.652;2022-12-29T05:14:57;4.70;;;1.70;;
11535;SDS011;5824;49.336;8.652;2022-12-29T05:17:22;4.17;;;1.70;;
11535;SDS011;5824;49.336;8.652;2022-12-29T05:19:48;4.03;;;1.80;;
11535;SDS011;5824;49.336;8.652;2022-12-29T05:22:13;3.83;;;1.80;;
11535;SDS011;5824;49.336;8.652;2022-12-29T05:24:39;1.93;;;1.73;;
11535;SDS011;5824;49.336;8.652;2022-12-29T05:27:05;1.80;;;1.63;;
11535;SDS011;5824;49.336;8.652;2022-12-29T05:29:30;1.83;;;1.57;;
11535;SDS011;5824;49.336;8.652;2022-12-29T05:31:56;3.20;;;1.87;;
11535;SDS011;5824;49.336;8.652;2022-12-29T05:34:21;1.70;;;1.60;;
11535;SDS011;5824;49.336;8.652;2022-12-29T05:36:47;3.37;;;1.63;;
11535;SDS011;5824;49.336;8.652;2022-12-29T05:39:12;3.20;;;1.90;;
11535;SDS011;5824;49.336;8.652;2022-12-29T05:41:38;2.60;;;1.80;;
11535;SDS011;5824;49.336;8.652;2022-12-29T05:44:03;1.80;;;1.40;;
11535;SDS011;5824;49.336;8.652;2022-12-29T05:46:29;5.93;;;1.70;;
11535;SDS011;5824;49.336;8.652;2022-12-29T05:48:55;5.83;;;1.97;;
11535;SDS011;5824;49.336;8.652;2022-12-29T05:51:20;3.00;;;1.50;;
11535;SDS011;5824;49.336;8.652;2022-12-29T05:53:46;4.50;;;1.80;;
11535;SDS011;5824;49.336;8.652;2022-12-29T05:56:11;4.03;;;1.73;;
11535;SDS011;5824;49.336;8.652;2022-12-29T05:58:37;2.90;;;1.67;;
11535;SDS011;5824;49.336;8.652;2022-12-29T06:01:02;2.43;;;1.80;;
11535;SDS011;5824;49.336;8.652;2022-12-29T06:03:28;1.70;;;1.50;;
11535;SDS011;5824;49.336;8.652;2022-12-29T06:05:53;2.67;;;1.73;;
11535;SDS011;5824;49.336;8.652;2022-12-29T06:08:19;2.23;;;2.00;;
11535;SDS011;5824;49.336;8.652;2022-12-29T06:10:44;8.10;;;1.87;;
11535;SDS011;5824;49.336;8.652;2022-12-29T06:13:10;3.83;;;1.80;;
11535;SDS011;5824;49.336;8.652;2022-12-29T06:15:35;3.47;;;1.83;;
11535;SDS011;5824;49.336;8.652;2022-12-29T06:18:01;3.17;;;1.90;;
11535;SDS011;5824;49.336;8.652;2022-12-29T06:20:27;2.23;;;1.60;;
11535;SDS011;5824;49.336;8.652;2022-12-29T06:22:52;5.07;;;2.10;;
11535;SDS011;5824;49.336;8.652;2022-12-29T06:25:18;2.20;;;2.00;;
11535;SDS011;5824;49.336;8.652;2022-12-29T06:27:43;1.77;;;1.67;;
11535;SDS011;5824;49.336;8.652;2022-12-29T06:30:09;3.80;;;1.83;;
11535;SDS011;5824;49.336;8.652;2022-12-29T06:32:36;4.40;;;1.87;;
11535;SDS011;5824;49.336;8.652;2022-12-29T06:35:02;5.97;;;2.33;;
11535;SDS011;5824;49.336;8.652;2022-12-29T06:37:28;3.93;;;1.80;;
11535;SDS011;5824;49.336;8.652;2022-12-29T06:39:54;3.77;;;2.10;;
11535;SDS011;5824;49.336;8.652;2022-12-29T06:42:20;3.20;;;1.77;;
11535;SDS011;5824;49.336;8.652;2022-12-29T06:44:45;3.73;;;2.07;;
11535;SDS011;5824;49.336;8.652;2022-12-29T06:47:11;5.90;;;1.90;;
11535;SDS011;5824;49.336;8.652;2022-12-29T06:49:37;1.70;;;1.57;;
11535;SDS011;5824;49.336;8.652;2022-12-29T06:52:02;2.50;;;2.30;;
11535;SDS011;5824;49.336;8.652;2022-12-29T06:54:29;3.10;;;1.77;;
11535;SDS011;5824;49.336;8.652;2022-12-29T06:56:55;2.37;;;2.00;;
11535;SDS011;5824;49.336;8.652;2022-12-29T06:59:21;2.43;;;2.10;;
11535;SDS011;5824;49.336;8.652;2022-12-29T07:01:47;2.90;;;2.40;;
11535;SDS011;5824;49.336;8.652;2022-12-29T07:04:12;4.03;;;2.23;;
11535;SDS011;5824;49.336;8.652;2022-12-29T07:06:38;3.60;;;2.23;;
11535;SDS011;5824;49.336;8.652;2022-12-29T07:09:05;4.60;;;2.00;;
11535;SDS011;5824;49.336;8.652;2022-12-29T07:11:31;3.83;;;1.97;;
11535;SDS011;5824;49.336;8.652;2022-12-29T07:13:57;2.43;;;1.97;;
11535;SDS011;5824;49.336;8.652;2022-12-29T07:16:22;5.10;;;2.27;;
11535;SDS011;5824;49.336;8.652;2022-12-29T07:18:48;2.70;;;2.30;;
11535;SDS011;5824;49.336;8.652;2022-12-29T07:21:13;4.10;;;2.40;;
11535;SDS011;5824;49.336;8.652;2022-12-29T07:23:39;3.57;;;2.13;;
11535;SDS011;5824;49.336;8.652;2022-12-29T07:26:06;2.10;;;1.80;;
11535;SDS011;5824;49.336;8.652;2022-12-29T07:28:33;4.33;;;2.10;;
11535;SDS011;5824;49.336;8.652;2022-12-29T07:31:00;3.30;;;2.00;;
11535;SDS011;5824;49.336;8.652;2022-12-29T07:33:27;2.63;;;2.27;;
11535;SDS011;5824;49.336;8.652;2022-12-29T07:35:53;4.13;;;2.17;;
11535;SDS011;5824;49.336;8.652;2022-12-29T07:38:19;3.33;;;2.00;;
11535;SDS011;5824;49.336;8.652;2022-12-29T07:40:44;2.53;;;2.20;;
11535;SDS011;5824;49.336;8.652;2022-12-29T07:43:10;4.13;;;2.20;;
11535;SDS011;5824;49.336;8.652;2022-12-29T07:45:35;3.13;;;2.20;;
11535;SDS011;5824;49.336;8.652;2022-12-29T07:48:01;3.33;;;2.00;;
11535;SDS011;5824;49.336;8.652;2022-12-29T07:50:27;2.50;;;2.03;;
11535;SDS011;5824;49.336;8.652;2022-12-29T07:52:53;2.23;;;1.87;;
11535;SDS011;5824;49.336;8.652;2022-12-29T07:55:18;3.23;;;2.20;;
11535;SDS011;5824;49.336;8.652;2022-12-29T07:57:44;4.00;;;2.40;;
11535;SDS011;5824;49.336;8.652;2022-12-29T08:00:10;4.30;;;2.73;;
11535;SDS011;5824;49.336;8.652;2022-12-29T08:02:35;4.30;;;2.30;;
11535;SDS011;5824;49.336;8.652;2022-12-29T08:05:01;2.30;;;2.00;;
11535;SDS011;5824;49.336;8.652;2022-12-29T08:07:27;4.40;;;2.10;;
11535;SDS011;5824;49.336;8.652;2022-12-29T08:09:52;5.60;;;2.00;;
11535;SDS011;5824;49.336;8.652;2022-12-29T08:12:18;3.40;;;2.30;;
11535;SDS011;5824;49.336;8.652;2022-12-29T08:14:44;6.30;;;2.40;;
11535;SDS011;5824;49.336;8.652;2022-12-29T08:17:09;3.07;;;2.00;;
11535;SDS011;5824;49.336;8.652;2022-12-29T14:42:19;7.23;;;3.40;;
11535;SDS011;5824;49.336;8.652;2022-12-29T14:47:32;5.57;;;2.90;;
11535;SDS011;5824;49.336;8.652;2022-12-29T14:52:30;3.67;;;2.33;;
11535;SDS011;5824;49.336;8.652;2022-12-29T14:55:28;4.50;;;2.50;;
11535;SDS011;5824;49.336;8.652;2022-12-29T14:57:48;5.50;;;2.70;;
11535;SDS011;5824;49.336;8.652;2022-12-29T15:00:19;6.87;;;3.33;;
11535;SDS011;5824;49.336;8.652;2022-12-29T15:02:46;3.00;;;2.30;;
11535;SDS011;5824;49.336;8.652;2022-12-29T15:08:12;9.30;;;4.87;;
11535;SDS011;5824;49.336;8.652;2022-12-29T15:10:42;8.30;;;3.87;;
11535;SDS011;5824;49.336;8.652;2022-12-29T15:13:18;2.43;;;1.60;;
11535;SDS011;5824;49.336;8.652;2022-12-29T15:15:49;2.53;;;1.73;;
11535;SDS011;5824;49.336;8.652;2022-12-29T15:18:29;3.30;;;2.20;;
11535;SDS011;5824;49.336;8.652;2022-12-29T15:21:00;2.77;;;1.83;;
11535;SDS011;5824;49.336;8.652;2022-12-29T15:23:27;3.60;;;1.80;;
11535;SDS011;5824;49.336;8.652;2022-12-29T15:25:56;2.70;;;1.40;;
11535;SDS011;5824;49.336;8.652;2022-12-29T15:28:24;4.50;;;2.60;;
11535;SDS011;5824;49.336;8.652;2022-12-29T15:31:01;3.40;;;1.77;;
11535;SDS011;5824;49.336;8.652;2022-12-29T15:33:29;7.00;;;3.53;;
11535;SDS011;5824;49.336;8.652;2022-12-29T15:35:56;3.00;;;1.90;;
11535;SDS011;5824;49.336;8.652;2022-12-29T15:38:28;2.23;;;1.93;;
11535;SDS011;5824;49.336;8.652;2022-12-29T15:40:55;3.33;;;1.70;;
11535;SDS011;5824;49.336;8.652;2022-12-29T15:46:16;3.07;;;2.53;;
11535;SDS011;5824;49.336;8.652;2022-12-29T15:48:42;4.03;;;3.63;;
11535;SDS011;5824;49.336;8.652;2022-12-29T15:51:18;6.73;;;4.63;;
11535;SDS011;5824;49.336;8.652;2022-12-29T15:53:49;7.93;;;4.60;;
11535;SDS011;5824;49.336;8.652;2022-12-29T15:56:16;9.10;;;5.90;;
11535;SDS011;5824;49.336;8.652;2022-12-29T15:58:47;16.50;;;9.77;;
11535;SDS011;5824;49.336;8.652;2022-12-29T16:01:19;8.10;;;5.27;;
11535;SDS011;5824;49.336;8.652;2022-12-29T16:03:55;6.03;;;3.60;;
11535;SDS011;5824;49.336;8.652;2022-12-29T16:11:38;4.90;;;2.33;;
11535;SDS011;5824;49.336;8.652;2022-12-29T16:14:10;3.40;;;2.20;;
11535;SDS011;5824;49.336;8.652;2022-12-29T16:16:43;3.07;;;1.97;;
11535;SDS011;5824;49.336;8.652;2022-12-29T16:19:13;6.10;;;2.30;;
11535;SDS011;5824;49.336;8.652;2022-12-29T16:21:46;6.30;;;2.60;;
11535;SDS011;5824;49.336;8.652;2022-12-29T16:24:16;3.50;;;2.70;;
11535;SDS011;5824;49.336;8.652;2022-12-29T16:26:46;4.30;;;2.60;;
11535;SDS011;5824;49.336;8.652;2022-12-29T16:29:14;4.60;;;2.73;;
11535;SDS011;5824;49.336;8.652;2022-12-29T16:31:59;2.83;;;2.20;;
11535;SDS011;5824;49.336;8.652;2022-12-29T16:36:58;4.47;;;2.10;;
11535;SDS011;5824;49.336;8.652;2022-12-29T16:39:46;4.43;;;2.63;;
11535;SDS011;5824;49.336;8.652;2022-12-29T16:42:32;2.77;;;1.80;;
11535;SDS011;5824;49.336;8.652;2022-12-29T16:45:22;2.50;;;2.00;;
11535;SDS011;5824;49.336;8.652;2022-12-29T16:50:39;4.30;;;2.40;;
11535;SDS011;5824;49.336;8.652;2022-12-29T16:53:15;11.03;;;2.50;;
11535;SDS011;5824;49.336;8.652;2022-12-29T16:55:48;5.37;;;2.80;;
11535;SDS011;5824;49.336;8.652;2022-12-29T16:58:16;3.27;;;2.60;;
11535;SDS011;5824;49.336;8.652;2022-12-29T17:00:46;8.90;;;3.17;;
11535;SDS011;5824;49.336;8.652;2022-12-29T17:03:12;4.90;;;2.70;;
11535;SDS011;5824;49.336;8.652;2022-12-29T17:05:38;4.57;;;3.23;;
11535;SDS011;5824;49.336;8.652;2022-12-29T17:08:13;6.50;;;5.00;;
11535;SDS011;5824;49.336;8.652;2022-12-29T17:10:51;5.37;;;4.20;;
11535;SDS011;5824;49.336;8.652;2022-12-29T17:13:39;5.70;;;3.80;;
11535;SDS011;5824;49.336;8.652;2022-12-29T17:16:05;6.40;;;4.37;;
11535;SDS011;5824;49.336;8.652;2022-12-29T17:18:33;8.57;;;3.97;;
11535;SDS011;5824;49.336;8.652;2022-12-29T17:20:59;8.40;;;3.63;;
11535;SDS011;5824;49.336;8.652;2022-12-29T17:23:24;6.33;;;3.63;;
11535;SDS011;5824;49.336;8.652;2022-12-29T17:25:50;10.43;;;3.73;;
11535;SDS011;5824;49.336;8.652;2022-12-29T17:28:27;9.70;;;4.37;;
11535;SDS011;5824;49.336;8.652;2022-12-29T17:30:59;6.10;;;3.93;;
11535;SDS011;5824;49.336;8.652;2022-12-29T17:33:26;8.67;;;3.50;;
11535;SDS011;5824;49.336;8.652;2022-12-29T17:35:54;6.13;;;3.33;;
11535;SDS011;5824;49.336;8.652;2022-12-29T17:38:21;3.60;;;2.30;;
11535;SDS011;5824;49.336;8.652;2022-12-29T17:40:49;6.33;;;3.10;;
11535;SDS011;5824;49.336;8.652;2022-12-29T17:43:15;7.23;;;2.63;;
11535;SDS011;5824;49.336;8.652;2022-12-29T17:45:41;6.23;;;2.50;;
11535;SDS011;5824;49.336;8.652;2022-12-29T17:48:10;6.30;;;2.73;;
11535;SDS011;5824;49.336;8.652;2022-12-29T17:50:37;11.47;;;2.50;;
11535;SDS011;5824;49.336;8.652;2022-12-29T17:53:04;4.00;;;2.00;;
11535;SDS011;5824;49.336;8.652;2022-12-29T17:55:32;5.13;;;2.27;;
11535;SDS011;5824;49.336;8.652;2022-12-29T17:57:57;3.60;;;2.00;;
11535;SDS011;5824;49.336;8.652;2022-12-29T18:00:27;3.57;;;2.17;;
11535;SDS011;5824;49.336;8.652;2022-12-29T18:02:54;4.50;;;1.97;;
11535;SDS011;5824;49.336;8.652;2022-12-29T18:05:25;6.47;;;2.33;;
11535;SDS011;5824;49.336;8.652;2022-12-29T18:07:53;5.47;;;2.77;;
11535;SDS011;5824;49.336;8.652;2022-12-29T18:10:23;5.20;;;2.43;;
11535;SDS011;5824;49.336;8.652;2022-12-29T18:12:51;6.43;;;2.17;;
11535;SDS011;5824;49.336;8.652;2022-12-29T18:15:20;3.40;;;2.20;;
11535;SDS011;5824;49.336;8.652;2022-12-29T18:20:36;4.20;;;1.83;;
11535;SDS011;5824;49.336;8.652;2022-12-29T18:23:03;5.50;;;2.30;;
11535;SDS011;5824;49.336;8.652;2022-12-29T18:25:35;3.83;;;2.30;;
11535;SDS011;5824;49.336;8.652;2022-12-29T18:28:06;7.23;;;2.20;;
11535;SDS011;5824;49.336;8.652;2022-12-29T18:30:32;5.60;;;2.63;;
11535;SDS011;5824;49.336;8.652;2022-12-29T18:32:59;9.33;;;3.80;;
11535;SDS011;5824;49.336;8.652;2022-12-29T18:35:25;9.03;;;3.80;;
11535;SDS011;5824;49.336;8.652;2022-12-29T18:37:57;7.83;;;3.97;;
11535;SDS011;5824;49.336;8.652;2022-12-29T18:40:22;10.17;;;4.37;;
11535;SDS011;5824;49.336;8.652;2022-12-29T18:42:48;11.13;;;4.47;;
11535;SDS011;5824;49.336;8.652;2022-12-29T18:45:14;7.80;;;4.40;;
11535;SDS011;5824;49.336;8.652;2022-12-29T18:47:48;9.70;;;4.87;;
11535;SDS011;5824;49.336;8.652;2022-12-29T18:50:14;11.40;;;6.63;;
11535;SDS011;5824;49.336;8.652;2022-12-29T18:52:40;9.47;;;6.10;;
11535;SDS011;5824;49.336;8.652;2022-12-29T18:55:12;13.80;;;6.90;;
11535;SDS011;5824;49.336;8.652;2022-12-29T18:57:43;9.97;;;6.20;;
11535;SDS011;5824;49.336;8.652;2022-12-29T19:00:09;7.33;;;4.43;;
11535;SDS011;5824;49.336;8.652;2022-12-29T19:02:36;9.93;;;4.60;;
11535;SDS011;5824;49.336;8.652;2022-12-29T19:05:01;12.77;;;4.10;;
11535;SDS011;5824;49.336;8.652;2022-12-29T19:07:27;8.93;;;3.70;;
11535;SDS011;5824;49.336;8.652;2022-12-29T19:09:53;4.80;;;2.93;;
11535;SDS011;5824;49.336;8.652;2022-12-29T19:12:18;7.30;;;3.23;;
11535;SDS011;5824;49.336;8.652;2022-12-29T19:14:44;11.63;;;3.83;;
11535;SDS011;5824;49.336;8.652;2022-12-29T19:17:10;7.23;;;4.00;;
11535;SDS011;5824;49.336;8.652;2022-12-29T19:19:37;7.93;;;3.63;;
11535;SDS011;5824;49.336;8.652;2022-12-29T19:22:03;6.10;;;3.40;;
11535;SDS011;5824;49.336;8.652;2022-12-29T19:24:28;9.33;;;4.30;;
11535;SDS011;5824;49.336;8.652;2022-12-29T19:26:54;7.87;;;3.53;;
11535;SDS011;5824;49.336;8.652;2022-12-29T19:29:19;10.70;;;4.47;;
11535;SDS011;5824;49.336;8.652;2022-12-29T19:31:45;7.43;;;3.80;;
11535;SDS011;5824;49.336;8.652;2022-12-29T19:34:12;6.20;;;3.33;;
11535;SDS011;5824;49.336;8.652;2022-12-29T19:36:39;7.17;;;3.90;;
11535;SDS011;5824;49.336;8.652;2022-12-29T19:39:04;5.87;;;3.90;;
11535;SDS011;5824;49.336;8.652;2022-12-29T19:41:30;11.77;;;3.73;;
11535;SDS011;5824;49.336;8.652;2022-12-29T19:43:56;8.33;;;3.80;;
11535;SDS011;5824;49.336;8.652;2022-12-29T19:46:22;6.33;;;3.60;;
11535;SDS011;5824;49.336;8.652;2022-12-29T19:48:49;6.47;;;3.60;;
11535;SDS011;5824;49.336;8.652;2022-12-29T19:51:15;9.67;;;4.53;;
11535;SDS011;5824;49.336;8.652;2022-12-29T19:53:42;9.60;;;4.67;;
11535;SDS011;5824;49.336;8.652;2022-12-29T19:56:08;7.13;;;3.30;;
11535;SDS011;5824;49.336;8.652;2022-12-29T19:58:34;7.73;;;4.00;;
11535;SDS011;5824;49.336;8.652;2022-12-29T20:01:06;8.17;;;4.63;;
11535;SDS011;5824;49.336;8.652;2022-12-29T20:03:37;4.83;;;3.90;;
11535;SDS011;5824;49.336;8.652;2022-12-29T20:06:03;6.37;;;4.10;;
11535;SDS011;5824;49.336;8.652;2022-12-29T20:08:30;7.50;;;3.90;;
11535;SDS011;5824;49.336;8.652;2022-12-29T20:10:59;7.10;;;3.90;;
11535;SDS011;5824;49.336;8.652;2022-12-29T20:13:33;12.70;;;4.07;;
11535;SDS011;5824;49.336;8.652;2022-12-29T20:16:00;9.60;;;3.80;;
11535;SDS011;5824;49.336;8.652;2022-12-29T20:18:28;9.43;;;3.73;;
11535;SDS011;5824;49.336;8.652;2022-12-29T20:20:59;11.47;;;3.90;;
11535;SDS011;5824;49.336;8.652;2022-12-29T20:23:26;4.77;;;3.10;;
11535;SDS011;5824;49.336;8.652;2022-12-29T20:25:52;7.80;;;3.10;;
11535;SDS011;5824;49.336;8.652;2022-12-29T20:28:19;4.67;;;2.93;;
11535;SDS011;5824;49.336;8.652;2022-12-29T20:30:52;4.83;;;3.10;;
11535;SDS011;5824;49.336;8.652;2022-12-29T20:33:25;5.93;;;3.30;;
11535;SDS011;5824;49.336;8.652;2022-12-29T20:35:52;6.90;;;2.67;;
11535;SDS011;5824;49.336;8.652;2022-12-29T20:38:18;9.60;;;3.13;;
11535;SDS011;5824;49.336;8.652;2022-12-29T20:40:44;8.77;;;2.80;;
11535;SDS011;5824;49.336;8.652;2022-12-29T20:43:10;7.07;;;3.40;;
11535;SDS011;5824;49.336;8.652;2022-12-29T20:45:37;7.60;;;2.67;;
11535;SDS011;5824;49.336;8.652;2022-12-29T20:48:03;4.77;;;2.47;;
11535;SDS011;5824;49.336;8.652;2022-12-29T20:50:29;10.30;;;2.90;;
11535;SDS011;5824;49.336;8.652;2022-12-29T20:52:54;15.97;;;4.50;;
11535;SDS011;5824;49.336;8.652;2022-12-29T20:55:20;10.97;;;4.60;;
11535;SDS011;5824;49.336;8.652;2022-12-29T20:57:45;10.50;;;4.37;;
11535;SDS011;5824;49.336;8.652;2022-12-29T21:00:11;5.97;;;3.00;;
11535;SDS011;5824;49.336;8.652;2022-12-29T21:02:37;13.10;;;4.90;;
11535;SDS011;5824;49.336;8.652;2022-12-29T21:05:02;7.80;;;2.77;;
11535;SDS011;5824;49.336;8.652;2022-12-29T21:07:28;7.27;;;3.47;;
11535;SDS011;5824;49.336;8.652;2022-12-29T21:09:54;5.60;;;2.47;;
11535;SDS011;5824;49.336;8.652;2022-12-29T21:12:19;5.43;;;2.37;;
11535;SDS011;5824;49.336;8.652;2022-12-29T21:14:45;6.37;;;3.60;;
11535;SDS011;5824;49.336;8.652;2022-12-29T21:17:10;4.97;;;2.80;;
11535;SDS011;5824;49.336;8.652;2022-12-29T21:19:36;5.80;;;2.70;;
11535;SDS011;5824;49.336;8.652;2022-12-29T21:22:01;5.17;;;2.20;;
11535;SDS011;5824;49.336;8.652;2022-12-29T21:24:27;3.10;;;2.20;;
11535;SDS011;5824;49.336;8.652;2022-12-29T21:26:52;14.30;;;2.70;;
11535;SDS011;5824;49.336;8.652;2022-12-29T21:29:18;6.67;;;2.90;;
11535;SDS011;5824;49.336;8.652;2022-12-29T21:31:43;4.20;;;2.23;;
11535;SDS011;5824;49.336;8.652;2022-12-29T21:34:10;3.63;;;2.13;;
11535;SDS011;5824;49.336;8.652;2022-12-29T21:36:35;6.57;;;2.20;;
11535;SDS011;5824;49.336;8.652;2022-12-29T21:39:01;5.13;;;2.27;;
11535;SDS011;5824;49.336;8.652;2022-12-29T21:41:27;5.17;;;2.37;;
11535;SDS011;5824;49.336;8.652;2022-12-29T21:43:53;6.07;;;2.17;;
11535;SDS011;5824;49.336;8.652;2022-12-29T21:46:38;4.57;;;2.43;;
11535;SDS011;5824;49.336;8.652;2022-12-29T21:49:05;6.13;;;2.00;;
11535;SDS011;5824;49.336;8.652;2022-12-29T21:51:31;4.60;;;2.70;;
11535;SDS011;5824;49.336;8.652;2022-12-29T21:54:16;5.13;;;2.47;;
11535;SDS011;5824;49.336;8.652;2022-12-29T21:57:02;6.90;;;2.13;;
11535;SDS011;5824;49.336;8.652;2022-12-29T21:59:28;7.53;;;2.50;;
11535;SDS011;5824;49.336;8.652;2022-12-29T22:02:16;5.87;;;2.03;;
11535;SDS011;5824;49.336;8.652;2022-12-29T22:05:02;5.27;;;2.00;;
11535;SDS011;5824;49.336;8.652;2022-12-29T22:07:47;4.33;;;2.10;;
11535;SDS011;5824;49.336;8.652;2022-12-29T22:10:31;7.83;;;2.53;;
11535;SDS011;5824;49.336;8.652;2022-12-29T22:13:15;7.60;;;2.13;;
11535;SDS011;5824;49.336;8.652;2022-12-29T22:15:40;10.97;;;2.70;;
11535;SDS011;5824;49.336;8.652;2022-12-29T22:18:06;6.80;;;2.30;;
11535;SDS011;5824;49.336;8.652;2022-12-29T22:20:32;6.17;;;2.20;;
11535;SDS011;5824;49.336;8.652;2022-12-29T22:22:59;4.20;;;2.03;;
11535;SDS011;5824;49.336;8.652;2022-12-29T22:25:26;4.30;;;1.83;;
11535;SDS011;5824;49.336;8.652;2022-12-29T22:27:51;5.23;;;2.57;;
11535;SDS011;5824;49.336;8.652;2022-12-29T22:30:17;4.40;;;2.07;;
11535;SDS011;5824;49.336;8.652;2022-12-29T22:32:43;5.70;;;1.90;;
11535;SDS011;5824;49.336;8.652;2022-12-29T22:35:09;10.30;;;2.07;;